Text Box: All records at near 07:00 local time
Kleivo 1 weather for Jun 2010
Month no. 43
Obs.
Da.
Temp. Dew Point Precip. Wind
Speed
Wind gusts Cloud cover Press. Humidity Wind dir. Sunny OPT
01.06.2010 8,9 7,2 0,0 4,0 4,0 2 996,8 89,0 225,0   65,0 %
02.06.2010 10,2 6,6 2,6 4,0 4,0 8 998,2 78,0 157,5 1 82,5 %
03.06.2010 11,0 8,9 0,0 0,0 0,0 1 1000,6 87,0 270,0   67,5 %
04.06.2010 8,7 7,2 0,0 0,0 0,0 2 1002,9 90,0 315,0   67,5 %
05.06.2010 9,5 7,8 0,0 1,9 1,9 10 999,9 89,0 22,5 1 87,5 %
06.06.2010 4,6 2,9 0,0 0,0 0,0 10 997,2 89,0 0,0 1 82,5 %
07.06.2010 10,7 8,9 0,0 2,1 2,1 10 988,7 89,0 157,5 1 90,0 %
08.06.2010 9,1 7,4 0,0 1,9 1,9 8 988,4 89,0 292,5 1 82,5 %
09.06.2010 7,2 5,5 0,0 1,9 0,0 10 991,4 89,0 22,5 1 85,0 %
10.06.2010 14,1 10,5 0,0 2,1 2,1 10 996,2 79,0 90,0 1 92,5 %
11.06.2010 11,9 10,2 0,0 0,0 0,0 2 986,7 89,0 0,0   70,0 %
12.06.2010 9,0 7,4 8,8 9,3 9,3 3 974,8 90,0 315,0 1 60,0 %
13.06.2010 9,4 7,0 7,7 1,9 1,9 1 991,1 85,0 315,0   60,0 %
14.06.2010 10,3 7,9 0,0 0,0 0,0 2 996,5 85,0 22,5   70,0 %
15.06.2010 18,2 7,9 0,0 7,4 7,4 8 1005,3 51,0 0,0 1 87,5 %
16.06.2010 8,1 6,4 0,0 0,0 0,0 10 1008,0 89,0 337,5 1 87,5 %
17.06.2010 20,0 10,1 20,5 5,6 5,6 2 1003,9 53,0 292,5   62,5 %
18.06.2010 8,1 6,1 1,5 1,9 1,9 5 994,8 87,0 337,5 1 75,0 %
19.06.2010 9,9 5,3 2,0 3,7 3,7 3 987,4 73,0 337,5 1 67,5 %
20.06.2010 8,3 3,9 0,0 7,4 7,4 2 991,1 74,0 247,5   62,5 %
21.06.2010 8,1 6,4 0,0 0,0 0,0 2 1000,6 89,0 315,0   67,5 %
22.06.2010 9,8 7,9 0,0 0,0 0,0 1 1002,9 88,0 292,5   65,0 %
23.06.2010 9,3 7,7 1,0 0,0 0,0 10 1001,6 90,0 315,0 1 87,5 %
24.06.2010 10,8 8,6 1,5 2,6 2,6 10 995,1 86,0 157,5 1 90,0 %
25.06.2010 10,9 9,3 6,2 2,1 0,0 10 992,1 90,0 112,5 1 85,0 %
26.06.2010 10,8 9,2 2,5 4,0 4,0 1 997,2 90,0 247,5   65,0 %
27.06.2010 9,8 8,2 2,0 1,4 1,4 1 1001,2 90,0 315,0   65,0 %
28.06.2010 14,4 9,4 0,5 1,9 2,1 2 999,2 72,0 135,0   72,5 %
29.06.2010 13,4 12,7 0,0 0,0 0,0 5 1015,1 95,0 22,5 1 80,0 %
30.06.2010 11,7 10,8 0,0 1,6 3,2 5 1012,4 94,0 202,5 1 77,5 %
                       
Avrg/Sum 10,5 7,8 56,8 2,3 2,2 5,2 997,2 84,3 195,8 17 75,3 %